Die Darstellen des Panoramas erfordert JavaScript

Hinweise beim Einflug aus vom Coronavirus Betroffenen Gebieten

Das Bundesministeriums für Gesundheit hat einige Hinweise zum Coronavirus veröffentlicht: Hinweise SARS

Für die Einreise von vom Coranvirus betroffenen Gebieten gelten besondere Bestimmung. Für weitere Details setzen Sie sich bitte frühzeitig mit der Flugleitung in Verbindung.

Neuigkeiten

Ab dem 01.04.2020 wird die luftrechtliche Halterschaft für den Verkehrslandeplatz Coburg vom Aero Club Coburg e.V. auf die neu gegründete SÜC Verkehrslandeplatz GmbH – eine 100%ige Tochtergesellschaft der SÜC GmbH - übergehen.

Weiterlesen ...

Hinweise beim Einflug aus vom Coronavirus Betroffenen Gebieten

Weiterlesen ...

Automatic Terminal Information Service

EDQC 050250Z AUTO 26006KT 9999 BKN004 OVC020 10/08 Q0996=
 
SÜC Verkehrslandeplatz GmbH

Tower
Zur Brandensteinsebene 1
96450 Coburg

Kontakt

+49 (0) 95 61 / 9 20 98
+49 (0) 95 61 / 9 20 06

ICAO-Code EDQC

Impressum | Datenschutzerklärung

© SÜC Verkehrslandeplatz GmbH